Time;durP1;ratioP1;P1;durP2;ratioP2;P2;SDS_P1;SDS_P2;PMS_P1;PMS_P2;Temp;Humidity;BMP_temperature;BMP_pressure;BME280_temperature;BME280_humidity;BME280_pressure;Samples;Min_cycle;Max_cycle;Signal;HPM_P1;HPM_P2
2021/12/25 00:02:06;;;;;;;4.27;2.87;;;;;;;10.38;66.99;96722.16;8250703;28;20242;-70
2021/12/25 00:06:09;;;;;;;3.60;3.20;;;;;;;10.40;66.82;96732.41;8283134;28;20237;-70
2021/12/25 00:10:13;;;;;;;3.47;3.17;;;;;;;10.34;66.67;96728.44;8283115;28;20237;-70
2021/12/25 00:14:18;;;;;;;3.50;3.20;;;;;;;10.37;66.61;96721.28;8282979;28;20263;-70
2021/12/25 00:18:22;;;;;;;3.57;3.27;;;;;;;10.32;66.95;96722.53;8283420;28;20603;-70
2021/12/25 00:22:25;;;;;;;3.87;3.10;;;;;;;10.35;66.73;96723.16;8283270;28;20237;-70
2021/12/25 00:26:42;;;;;;;3.50;3.20;;;;;;;10.38;66.68;96716.97;8283132;28;20229;-70
2021/12/25 00:31:01;;;;;;;4.73;3.50;;;;;;;10.38;66.33;96722.16;8282791;28;20237;-70
2021/12/25 00:35:05;;;;;;;3.70;3.40;;;;;;;10.40;66.47;96722.88;8282901;28;20264;-70
2021/12/25 00:39:08;;;;;;;4.13;3.57;;;;;;;10.40;65.71;96727.22;8277114;28;20490;-70
2021/12/25 00:43:11;;;;;;;3.60;3.30;;;;;;;10.37;65.60;96721.28;8250486;28;20544;-70
2021/12/25 00:47:15;;;;;;;3.90;3.50;;;;;;;10.39;65.74;96725.56;8250186;28;20234;-70
2021/12/25 00:51:18;;;;;;;4.73;3.90;;;;;;;10.28;65.92;96727.03;8250148;28;20234;-70
2021/12/25 00:55:21;;;;;;;4.20;3.40;;;;;;;10.32;65.72;96725.13;8250440;28;20435;-70
2021/12/25 00:59:24;;;;;;;4.30;3.90;;;;;;;10.29;65.84;96723.50;8249997;28;20240;-70
2021/12/25 01:03:28;;;;;;;3.90;3.60;;;;;;;10.29;66.24;96731.28;8249289;28;20339;-70
2021/12/25 01:07:31;;;;;;;5.50;3.60;;;;;;;10.35;66.12;96728.31;8250073;28;20238;-70
2021/12/25 01:11:35;;;;;;;4.07;3.63;;;;;;;10.33;66.28;96727.59;8250188;28;20389;-70
2021/12/25 01:15:58;;;;;;;4.40;3.70;;;;;;;10.32;66.12;96733.72;8249766;28;20234;-70
2021/12/25 01:20:38;;;;;;;4.13;3.73;;;;;;;10.34;65.70;96729.25;8250170;28;20261;-70
2021/12/25 01:29:37;;;;;;;4.07;3.67;;;;;;;10.33;66.26;96734.53;8456399;27;20562;-70
2021/12/25 01:34:17;;;;;;;3.83;3.37;;;;;;;10.35;66.20;96737.84;8443114;28;20226;-69
2021/12/25 01:38:36;;;;;;;4.00;3.60;;;;;;;10.38;66.33;96735.09;8442198;28;20555;-69
2021/12/25 01:51:22;;;;;;;5.50;5.00;;;;;;;10.17;67.24;96738.06;8410239;28;20198;-70
2021/12/25 01:55:27;;;;;;;6.23;4.90;;;;;;;10.36;67.01;96731.75;8408433;28;20234;-69
2021/12/25 01:59:29;;;;;;;4.83;4.43;;;;;;;10.41;66.67;96736.63;8408293;28;20233;-69
2021/12/25 02:03:36;;;;;;;5.03;4.57;;;;;;;10.37;66.82;96744.59;8411439;28;20431;-70
2021/12/25 02:07:39;;;;;;;5.43;4.97;;;;;;;10.36;66.49;96730.00;8441928;28;20236;-70
2021/12/25 02:11:42;;;;;;;5.33;4.83;;;;;;;10.37;66.45;96723.88;8441666;28;20226;-69
2021/12/25 02:15:48;;;;;;;5.30;4.80;;;;;;;10.41;66.53;96727.09;8441764;28;20299;-69
2021/12/25 02:20:11;;;;;;;5.40;5.00;;;;;;;10.07;67.20;96736.13;8441529;28;20226;-69
2021/12/25 02:24:14;;;;;;;6.13;5.63;;;;;;;10.07;67.83;96733.53;8440922;28;20226;-70
2021/12/25 02:28:18;;;;;;;6.33;5.83;;;;;;;10.03;67.80;96732.88;8441455;28;20431;-70
2021/12/25 02:32:21;;;;;;;6.80;6.20;;;;;;;10.09;67.36;96721.34;8441480;28;20226;-70
2021/12/25 02:36:26;;;;;;;7.20;6.53;;;;;;;10.07;67.58;96715.44;8441404;28;20253;-69
2021/12/25 02:40:29;;;;;;;7.43;6.73;;;;;;;10.03;67.74;96709.59;8435658;28;20225;-69
2021/12/25 02:44:32;;;;;;;7.50;6.90;;;;;;;10.07;67.29;96708.53;8452492;28;20223;-70
2021/12/25 02:48:36;;;;;;;7.73;7.03;;;;;;;10.01;67.50;96706.28;8452099;28;20547;-69
2021/12/25 02:52:43;;;;;;;7.63;6.83;;;;;;;10.27;66.52;96699.50;8452117;28;20544;-69
2021/12/25 02:56:46;;;;;;;7.17;6.57;;;;;;;10.32;66.78;96705.25;8452130;28;20234;-69
2021/12/25 03:00:53;;;;;;;7.40;6.70;;;;;;;10.35;66.26;96707.63;8451903;28;20226;-69
2021/12/25 03:04:56;;;;;;;7.03;6.43;;;;;;;10.35;66.30;96694.69;8451124;28;20240;-69
2021/12/25 03:09:00;;;;;;;7.10;6.50;;;;;;;10.27;66.37;96699.50;8451151;28;20230;-69
2021/12/25 03:13:28;;;;;;;7.23;6.40;;;;;;;10.37;66.50;96697.19;8450895;28;20237;-69
2021/12/25 03:17:33;;;;;;;7.03;6.43;;;;;;;10.30;66.45;96691.56;8450726;28;20226;-69
2021/12/25 03:21:36;;;;;;;6.90;6.30;;;;;;;10.36;66.21;96690.34;8451000;28;20245;-69
2021/12/25 03:25:41;;;;;;;8.07;7.40;;;;;;;10.31;66.14;96689.81;8450497;28;20241;-70
2021/12/25 03:29:44;;;;;;;8.03;7.37;;;;;;;10.31;66.48;96688.03;8450448;28;20230;-69
2021/12/25 03:33:50;;;;;;;9.00;8.20;;;;;;;10.18;66.86;96684.53;8450636;28;20233;-69
2021/12/25 03:37:53;;;;;;;8.30;7.60;;;;;;;10.28;66.00;96675.28;8450677;28;20229;-69
2021/12/25 03:41:58;;;;;;;8.20;7.50;;;;;;;10.28;66.02;96672.69;8450142;28;20533;-69
2021/12/25 03:46:01;;;;;;;8.27;7.57;;;;;;;10.28;65.61;96677.03;8450213;28;20589;-69
2021/12/25 03:59:02;;;;;;;8.47;7.77;;;;;;;10.31;65.66;96677.69;8346487;28;20232;-69
2021/12/25 04:03:09;;;;;;;8.43;7.63;;;;;;;10.24;65.74;96675.56;8393374;28;20226;-69
2021/12/25 04:07:24;;;;;;;9.10;8.30;;;;;;;10.26;65.75;96665.94;8482395;28;20230;-70
2021/12/25 04:11:30;;;;;;;10.47;9.47;;;;;;;10.29;65.88;96670.94;8482623;28;20241;-69
2021/12/25 04:15:34;;;;;;;9.87;9.03;;;;;;;10.19;66.20;96662.94;8482577;28;20235;-69
2021/12/25 04:19:38;;;;;;;10.40;9.40;;;;;;;10.19;66.78;96660.34;8482575;28;20291;-69
2021/12/25 04:23:42;;;;;;;9.57;8.73;;;;;;;10.18;65.46;96663.84;8482686;28;20233;-69
2021/12/25 04:27:45;;;;;;;9.00;8.20;;;;;;;10.22;66.10;96669.66;8481815;28;20229;-69
2021/12/25 04:32:11;;;;;;;9.10;8.20;;;;;;;10.24;65.96;96666.03;8482105;28;20232;-69
2021/12/25 05:02:29;;;;;;;8.67;7.87;;;;;;;10.20;65.61;96658.59;8480748;28;20227;-69
2021/12/25 05:06:34;;;;;;;9.37;8.57;;;;;;;10.03;66.42;96657.88;8480922;28;20237;-69
2021/12/25 05:10:37;;;;;;;8.67;7.97;;;;;;;10.03;66.51;96662.22;8481182;28;20225;-69
2021/12/25 05:14:40;;;;;;;8.43;7.70;;;;;;;10.18;66.08;96654.34;8480767;28;20225;-69
2021/12/25 05:18:43;;;;;;;8.23;7.50;;;;;;;10.11;65.94;96655.66;8480646;28;20419;-69
2021/12/25 05:22:47;;;;;;;8.00;7.30;;;;;;;10.17;66.06;96659.63;8480811;28;20234;-69
2021/12/25 05:26:56;;;;;;;7.87;7.17;;;;;;;10.17;65.55;96659.63;8480399;28;20282;-69
2021/12/25 05:30:59;;;;;;;7.93;7.13;;;;;;;10.17;65.51;96662.19;8480717;28;20229;-69
2021/12/25 05:35:02;;;;;;;7.93;7.33;;;;;;;10.23;66.24;96661.81;8480684;28;20248;-69
2021/12/25 05:39:11;;;;;;;7.73;7.13;;;;;;;10.19;66.02;96662.94;8480657;28;20446;-69
2021/12/25 05:43:14;;;;;;;8.87;8.17;;;;;;;9.91;66.87;96658.66;8446485;28;20535;-69
2021/12/25 05:47:17;;;;;;;7.07;6.47;;;;;;;10.11;66.74;96662.56;8446829;28;20245;-69
2021/12/25 05:51:20;;;;;;;6.83;6.23;;;;;;;10.21;66.09;96657.66;8447071;28;20226;-69
2021/12/25 05:55:25;;;;;;;7.63;7.03;;;;;;;10.22;66.03;96659.31;8446987;28;20528;-69
2021/12/25 05:59:28;;;;;;;7.23;6.63;;;;;;;10.14;66.21;96657.22;8447212;28;20229;-69
2021/12/25 06:03:31;;;;;;;5.97;5.47;;;;;;;10.16;65.78;96663.13;8446791;28;20218;-69
2021/12/25 06:07:34;;;;;;;5.23;4.73;;;;;;;10.18;65.59;96664.69;8446708;28;20420;-69
2021/12/25 06:11:39;;;;;;;4.60;4.20;;;;;;;10.20;65.47;96669.75;8446476;28;20230;-69
2021/12/25 06:15:42;;;;;;;3.60;3.30;;;;;;;10.01;66.07;96671.84;8452153;28;20229;-69
2021/12/25 06:19:45;;;;;;;3.70;3.40;;;;;;;10.12;65.43;96680.59;8452562;28;20236;-69
2021/12/25 06:23:48;;;;;;;4.00;3.70;;;;;;;10.02;65.72;96681.28;8452590;28;20226;-69
2021/12/25 06:28:10;;;;;;;7.13;2.33;;;;;;;9.44;68.21;96696.81;8451588;28;20529;-69
2021/12/25 06:32:13;;;;;;;3.20;2.90;;;;;;;9.30;66.40;96694.25;8452271;28;20230;-69
2021/12/25 06:36:16;;;;;;;3.47;3.17;;;;;;;9.24;65.80;96686.88;8452167;28;20559;-69
2021/12/25 06:40:21;;;;;;;7.43;2.23;;;;;;;9.29;65.77;96690.00;8451642;28;20238;-69
2021/12/25 06:44:27;;;;;;;2.57;2.17;;;;;;;9.07;65.36;96703.34;8451780;28;20230;-69
2021/12/25 06:48:30;;;;;;;4.03;3.63;;;;;;;9.07;64.88;96704.19;8452096;28;20395;-70
2021/12/25 06:52:33;;;;;;;4.33;3.67;;;;;;;9.09;64.18;96698.94;8451634;28;20233;-70
2021/12/25 06:56:36;;;;;;;3.47;2.90;;;;;;;8.95;64.20;96697.16;8451602;28;20233;-70
2021/12/25 07:00:40;;;;;;;5.23;2.60;;;;;;;8.87;63.48;96702.75;8451834;28;20236;-69
2021/12/25 07:04:44;;;;;;;3.67;2.90;;;;;;;8.65;63.35;96708.31;8451630;28;20226;-69
2021/12/25 07:08:47;;;;;;;3.60;3.30;;;;;;;8.32;63.29;96723.88;8451285;28;20230;-69
2021/12/25 07:12:54;;;;;;;3.37;3.00;;;;;;;8.26;63.43;96727.63;8450731;28;20565;-69
2021/12/25 07:16:58;;;;;;;2.80;2.60;;;;;;;8.51;62.43;96731.47;8451284;28;20226;-69
2021/12/25 07:21:01;;;;;;;3.40;3.10;;;;;;;8.47;62.12;96733.38;8450962;28;20241;-69
2021/12/25 07:25:05;;;;;;;3.40;3.10;;;;;;;8.23;62.39;96728.63;8450798;28;20233;-69
2021/12/25 07:29:08;;;;;;;3.57;3.27;;;;;;;8.21;61.66;96729.66;8450074;28;20230;-69
2021/12/25 07:33:13;;;;;;;3.70;3.40;;;;;;;8.33;61.83;96739.28;8450818;28;20237;-69
2021/12/25 07:37:16;;;;;;;4.17;3.40;;;;;;;8.35;62.34;96745.19;8450491;28;20237;-69
2021/12/25 07:41:19;;;;;;;3.50;3.20;;;;;;;8.36;61.72;96741.69;8450184;28;20230;-69
2021/12/25 07:45:23;;;;;;;3.40;3.10;;;;;;;8.10;62.39;96744.88;8450283;28;20237;-69
2021/12/25 07:49:27;;;;;;;3.30;3.00;;;;;;;8.09;62.57;96748.34;8449739;28;20246;-69
2021/12/25 07:53:31;;;;;;;3.20;2.73;;;;;;;7.82;62.33;96756.63;8449914;28;20410;-69
2021/12/25 07:57:34;;;;;;;3.53;2.93;;;;;;;7.88;62.69;96752.91;8449939;28;20242;-69
2021/12/25 08:01:38;;;;;;;3.27;2.97;;;;;;;7.51;63.73;96757.41;8449605;28;20237;-69
2021/12/25 08:05:43;;;;;;;4.33;2.50;;;;;;;7.55;63.08;96756.31;8449139;28;20234;-69
2021/12/25 08:09:45;;;;;;;5.60;2.53;;;;;;;7.34;62.67;96759.09;8449284;28;20230;-69
2021/12/25 08:13:49;;;;;;;2.70;2.50;;;;;;;7.40;63.22;96756.19;8449035;28;20230;-69
2021/12/25 08:17:52;;;;;;;5.50;2.60;;;;;;;7.49;62.27;96766.94;8449043;28;20236;-69
2021/12/25 08:21:59;;;;;;;2.80;2.60;;;;;;;7.69;62.38;96773.66;8448855;28;20274;-69
2021/12/25 08:26:03;;;;;;;3.70;2.60;;;;;;;7.65;62.56;96770.38;8448881;28;20244;-69
2021/12/25 08:30:10;;;;;;;2.50;2.30;;;;;;;7.74;61.98;96775.06;8448752;28;20229;-69
2021/12/25 08:34:13;;;;;;;4.63;2.50;;;;;;;8.01;60.64;96780.56;8448161;28;20226;-69
2021/12/25 08:38:19;;;;;;;4.93;2.77;;;;;;;7.64;61.68;96790.19;8447847;28;20584;-69
2021/12/25 08:42:22;;;;;;;4.03;2.93;;;;;;;7.26;62.21;96793.88;8447872;28;20228;-69
2021/12/25 08:46:43;;;;;;;3.37;2.63;;;;;;;7.34;61.67;96796.88;8447955;28;20571;-69
2021/12/25 08:50:51;;;;;;;2.60;2.40;;;;;;;7.78;61.79;96796.38;8447878;28;20234;-69
2021/12/25 08:54:56;;;;;;;2.63;2.43;;;;;;;7.57;62.05;96788.81;8448217;28;20233;-69
2021/12/25 08:59:00;;;;;;;4.10;2.40;;;;;;;7.84;61.27;96801.19;8448160;28;20386;-69
2021/12/25 09:03:03;;;;;;;2.43;2.23;;;;;;;7.42;61.89;96800.75;8447510;28;20226;-69
2021/12/25 09:07:07;;;;;;;2.40;2.20;;;;;;;7.40;62.83;96802.56;8447762;28;20408;-69
2021/12/25 09:11:11;;;;;;;2.90;2.70;;;;;;;7.86;61.13;96803.69;8447345;28;20225;-69
2021/12/25 09:15:14;;;;;;;2.60;2.40;;;;;;;7.72;61.12;96800.09;8447696;28;20233;-69
2021/12/25 09:19:17;;;;;;;2.27;2.10;;;;;;;7.77;60.99;96805.03;8447718;28;20236;-69
2021/12/25 09:23:24;;;;;;;1.93;1.73;;;;;;;7.81;61.05;96816.84;8447387;28;20234;-69
2021/12/25 09:27:28;;;;;;;1.70;1.60;;;;;;;7.41;62.20;96822.25;8447248;28;20249;-69
2021/12/25 09:31:31;;;;;;;1.90;1.80;;;;;;;7.62;61.35;96828.06;8447148;28;20238;-69
2021/12/25 09:35:34;;;;;;;2.50;2.30;;;;;;;7.92;60.68;96827.44;8447109;28;20245;-69
2021/12/25 09:39:37;;;;;;;2.40;2.20;;;;;;;7.80;60.98;96825.47;8447016;28;20229;-69
2021/12/25 09:43:42;;;;;;;2.50;2.10;;;;;;;7.83;60.35;96835.63;8447155;28;20415;-69
2021/12/25 09:47:45;;;;;;;2.60;2.40;;;;;;;7.55;61.20;96839.59;8448137;28;20425;-69
2021/12/25 09:51:49;;;;;;;2.53;2.20;;;;;;;7.44;61.20;96847.03;8453392;28;20268;-69
2021/12/25 09:55:53;;;;;;;1.57;1.47;;;;;;;7.55;61.22;96841.34;8453782;28;20226;-69
2021/12/25 09:59:57;;;;;;;1.50;1.40;;;;;;;7.57;61.19;96845.50;8453573;28;20229;-69
2021/12/25 10:04:01;;;;;;;1.80;1.70;;;;;;;7.60;61.06;96842.78;8453401;28;20237;-69
2021/12/25 10:08:07;;;;;;;2.77;1.90;;;;;;;7.40;61.49;96845.50;8452789;28;20242;-69
2021/12/25 10:12:12;;;;;;;2.00;1.80;;;;;;;7.24;61.61;96850.59;8452522;28;20226;-69
2021/12/25 10:16:24;;;;;;;1.80;1.70;;;;;;;7.41;60.52;96847.19;8452965;28;20233;-69
2021/12/25 10:20:29;;;;;;;2.63;1.80;;;;;;;7.72;60.27;96849.06;8452449;28;20242;-69
2021/12/25 10:24:37;;;;;;;2.30;1.87;;;;;;;7.25;61.19;96834.22;8452272;28;20244;-69
2021/12/25 10:28:41;;;;;;;2.30;2.10;;;;;;;7.78;60.47;96832.44;8451867;28;20230;-69
2021/12/25 10:32:45;;;;;;;3.13;2.80;;;;;;;7.56;60.87;96838.69;8452472;28;20226;-68
2021/12/25 10:36:49;;;;;;;1.90;1.80;;;;;;;7.51;61.30;96832.94;8452167;28;20226;-69
2021/12/25 10:41:10;;;;;;;2.10;1.90;;;;;;;7.62;60.24;96827.25;8451622;28;20426;-69
2021/12/25 10:45:14;;;;;;;4.03;3.30;;;;;;;7.75;60.73;96822.28;8485043;28;20516;-69
2021/12/25 10:49:19;;;;;;;1.80;1.70;;;;;;;7.50;60.02;96820.97;8485407;28;20236;-69
2021/12/25 10:53:24;;;;;;;3.00;2.70;;;;;;;7.80;60.40;96823.72;8484974;28;20229;-69
2021/12/25 10:57:32;;;;;;;1.90;1.80;;;;;;;7.76;59.87;96817.06;8485149;28;20395;-69
2021/12/25 11:01:39;;;;;;;1.77;1.40;;;;;;;7.91;59.43;96819.78;8484607;28;20577;-69
2021/12/25 11:05:48;;;;;;;1.67;1.50;;;;;;;7.41;60.49;96832.56;8484918;28;20237;-69
2021/12/25 11:10:09;;;;;;;2.43;2.20;;;;;;;7.68;60.60;96829.50;8484785;28;20233;-69
2021/12/25 11:14:14;;;;;;;2.60;2.40;;;;;;;7.62;59.71;96827.25;8484347;28;20274;-69
2021/12/25 11:18:17;;;;;;;2.00;1.70;;;;;;;7.69;59.88;96822.59;8484626;28;20233;-69
2021/12/25 11:22:21;;;;;;;2.50;2.30;;;;;;;7.79;60.06;96834.13;8484580;28;20229;-69
2021/12/25 11:26:24;;;;;;;7.57;4.83;;;;;;;7.55;60.01;96834.44;8484223;28;20504;-69
2021/12/25 11:30:31;;;;;;;10.37;6.63;;;;;;;7.71;60.08;96825.94;8484052;28;20248;-69
2021/12/25 11:34:34;;;;;;;7.70;6.90;;;;;;;7.79;59.87;96814.34;8484107;28;20225;-70
2021/12/25 11:38:38;;;;;;;2.53;2.33;;;;;;;7.95;59.43;96835.00;8483931;28;20231;-69
2021/12/25 11:42:42;;;;;;;10.73;7.50;;;;;;;7.90;59.27;96833.56;8483533;28;20229;-69
2021/12/25 11:46:45;;;;;;;8.97;6.37;;;;;;;7.71;60.05;96836.25;8483528;28;20416;-69
2021/12/25 11:50:50;;;;;;;8.53;6.50;;;;;;;7.89;59.71;96829.34;8483858;28;20237;-69
2021/12/25 11:55:12;;;;;;;3.10;2.80;;;;;;;7.99;59.90;96836.50;8483677;28;20227;-69
2021/12/25 11:59:17;;;;;;;2.33;1.50;;;;;;;7.47;59.92;96833.19;8449342;28;20229;-69
2021/12/25 12:03:37;;;;;;;1.63;1.50;;;;;;;7.89;60.37;96835.31;8449285;28;20237;-69
2021/12/25 12:07:58;;;;;;;1.90;1.70;;;;;;;7.87;60.47;96828.59;8449507;28;20226;-69
2021/12/25 12:12:18;;;;;;;1.53;1.37;;;;;;;7.48;60.01;96830.50;8448582;28;20230;-69
2021/12/25 12:16:37;;;;;;;1.90;1.60;;;;;;;7.70;59.88;96837.16;8448947;28;20535;-69
2021/12/25 12:20:41;;;;;;;1.63;1.50;;;;;;;7.58;60.12;96833.47;8449225;28;20234;-69
2021/12/25 12:24:51;;;;;;;1.47;1.37;;;;;;;7.84;60.01;96829.56;8449160;28;20286;-69
2021/12/25 12:28:55;;;;;;;1.50;1.40;;;;;;;7.93;59.84;96828.25;8449091;28;20234;-69
2021/12/25 12:32:59;;;;;;;1.30;1.17;;;;;;;7.55;60.60;96847.31;8448357;28;20230;-69
2021/12/25 12:37:28;;;;;;;1.07;0.97;;;;;;;7.55;60.74;96849.91;8448428;28;20236;-69
2021/12/25 12:41:34;;;;;;;5.00;2.97;;;;;;;7.55;59.98;96856.81;8447616;28;20389;-69
2021/12/25 12:45:39;;;;;;;5.80;3.47;;;;;;;7.54;59.76;96861.13;8448228;28;20229;-69
2021/12/25 12:49:57;;;;;;;2.50;1.90;;;;;;;7.65;59.23;96868.31;8448008;28;20245;-69
2021/12/25 12:54:00;;;;;;;3.67;2.60;;;;;;;7.59;59.93;96866.03;8447729;28;20230;-69
2021/12/25 12:58:15;;;;;;;2.20;1.57;;;;;;;7.50;59.96;96862.19;8447805;28;20237;-69
2021/12/25 13:02:21;;;;;;;1.83;1.60;;;;;;;7.41;60.24;96870.38;8447327;28;20532;-69
2021/12/25 13:06:27;;;;;;;2.20;1.40;;;;;;;7.40;60.26;96882.41;8447374;28;20285;-69
2021/12/25 13:10:37;;;;;;;1.50;1.40;;;;;;;7.62;59.67;96881.38;8447743;28;20241;-69
2021/12/25 13:14:39;;;;;;;2.93;2.03;;;;;;;7.52;60.51;96898.16;8447744;28;20237;-69
2021/12/25 13:18:46;;;;;;;3.13;1.77;;;;;;;7.51;60.11;96897.34;8447715;28;20237;-69
2021/12/25 13:22:57;;;;;;;2.27;1.80;;;;;;;7.54;59.53;96907.50;8447223;28;20234;-69
2021/12/25 13:27:00;;;;;;;4.13;2.30;;;;;;;7.27;60.23;96921.72;8447104;28;20236;-69
2021/12/25 13:31:08;;;;;;;3.57;2.40;;;;;;;7.31;60.57;96921.50;8447501;28;20524;-69
2021/12/25 13:35:16;;;;;;;7.63;4.50;;;;;;;7.43;60.63;96913.19;8446814;28;20296;-69
2021/12/25 13:39:23;;;;;;;1.90;1.70;;;;;;;7.32;60.55;96917.19;8446257;28;20226;-69
2021/12/25 13:43:28;;;;;;;2.40;1.50;;;;;;;7.27;60.15;96922.53;8446453;28;20240;-69
2021/12/25 13:47:33;;;;;;;1.57;1.47;;;;;;;7.29;60.24;96922.47;8446886;28;20513;-69
2021/12/25 13:51:43;;;;;;;1.30;1.20;;;;;;;7.43;59.39;96923.47;8446608;28;20237;-69
2021/12/25 13:55:48;;;;;;;1.70;1.37;;;;;;;7.28;59.35;96934.53;8446583;28;20529;-69
2021/12/25 13:59:51;;;;;;;1.37;1.27;;;;;;;7.01;60.92;96942.63;8447016;28;20268;-69
2021/12/25 14:03:54;;;;;;;3.27;2.30;;;;;;;7.36;59.83;96941.88;8446409;28;20417;-69
2021/12/25 14:07:59;;;;;;;1.30;1.20;;;;;;;7.12;59.88;96949.88;8446419;28;20554;-69
2021/12/25 14:12:03;;;;;;;1.50;1.40;;;;;;;7.07;60.05;96953.56;8446046;28;20241;-69
2021/12/25 14:16:06;;;;;;;1.93;1.50;;;;;;;7.37;59.38;96959.84;8446146;28;20230;-69
2021/12/25 14:20:13;;;;;;;1.73;1.50;;;;;;;6.99;59.79;96969.34;8445901;28;20264;-69
2021/12/25 14:24:18;;;;;;;1.47;1.37;;;;;;;7.18;59.58;96956.47;8446317;28;20567;-69
2021/12/25 14:28:23;;;;;;;1.90;1.70;;;;;;;7.15;59.52;96972.06;8446035;28;20234;-68
2021/12/25 14:32:28;;;;;;;2.40;2.20;;;;;;;7.33;58.43;96968.63;8446173;28;20238;-69
2021/12/25 14:36:33;;;;;;;1.40;1.30;;;;;;;6.84;59.02;96979.44;8451663;28;20386;-69
2021/12/25 14:40:45;;;;;;;2.77;1.90;;;;;;;6.40;60.31;96987.38;8451957;28;20229;-69
2021/12/25 14:44:59;;;;;;;1.83;1.67;;;;;;;6.33;59.36;96991.09;8452141;28;20413;-69
2021/12/25 14:49:05;;;;;;;1.67;1.57;;;;;;;5.93;60.81;96985.03;8452066;28;20552;-69
2021/12/25 14:53:12;;;;;;;2.27;1.70;;;;;;;6.29;60.54;96999.03;8451145;28;20339;-69
2021/12/25 14:57:23;;;;;;;1.50;1.40;;;;;;;5.68;61.83;97004.03;8451718;28;20437;-69
2021/12/25 15:01:28;;;;;;;1.50;1.40;;;;;;;5.92;60.94;97006.53;8451579;28;20431;-69
2021/12/25 15:05:37;;;;;;;2.07;1.60;;;;;;;6.48;60.17;97004.22;8451387;28;20328;-69
2021/12/25 15:09:42;;;;;;;1.63;1.50;;;;;;;6.68;59.38;97011.88;8451321;28;20230;-69
2021/12/25 15:13:59;;;;;;;1.97;1.60;;;;;;;6.42;59.54;97013.03;8451025;28;20230;-69
2021/12/25 15:18:02;;;;;;;1.73;1.63;;;;;;;6.04;59.85;97020.63;8450857;28;20227;-69
2021/12/25 15:22:07;;;;;;;2.90;1.70;;;;;;;5.92;60.96;97016.81;8450896;28;20237;-69
2021/12/25 15:26:12;;;;;;;2.00;1.80;;;;;;;5.81;60.67;97026.69;8450042;28;20230;-69
2021/12/25 15:30:19;;;;;;;2.30;2.10;;;;;;;5.72;60.73;97027.88;8450779;28;20230;-69
2021/12/25 15:34:22;;;;;;;1.97;1.57;;;;;;;5.49;62.18;97041.63;8450462;28;20226;-69
2021/12/25 15:38:27;;;;;;;2.37;1.50;;;;;;;5.39;60.69;97048.84;8449967;28;20229;-69
2021/12/25 15:42:30;;;;;;;1.93;1.50;;;;;;;5.95;60.50;97051.81;8449947;28;20222;-69
2021/12/25 15:46:35;;;;;;;1.93;1.70;;;;;;;6.30;59.24;97045.22;8449697;28;20230;-69
2021/12/25 15:50:38;;;;;;;2.20;2.00;;;;;;;6.32;59.78;97040.03;8449478;28;20552;-69
2021/12/25 15:54:41;;;;;;;2.73;2.10;;;;;;;5.82;60.89;97060.00;8449414;28;20573;-69
2021/12/25 15:58:44;;;;;;;2.37;2.07;;;;;;;6.08;60.47;97055.59;8449476;28;20248;-69
2021/12/25 16:02:49;;;;;;;2.50;2.30;;;;;;;5.80;60.54;97053.25;8449580;28;20254;-69
2021/12/25 16:06:52;;;;;;;2.80;2.10;;;;;;;5.74;60.14;97044.06;8449259;28;20560;-69
2021/12/25 16:10:56;;;;;;;2.20;2.00;;;;;;;5.38;60.89;97054.03;8449293;28;20246;-69
2021/12/25 16:14:58;;;;;;;2.63;2.00;;;;;;;5.18;61.21;97054.75;8449081;28;20435;-69
2021/12/25 16:19:03;;;;;;;6.37;5.17;;;;;;;5.36;60.72;97060.94;8448830;28;20237;-69
2021/12/25 16:23:06;;;;;;;2.73;2.30;;;;;;;5.00;61.46;97066.56;8449035;28;20234;-69
2021/12/25 16:27:10;;;;;;;2.87;2.00;;;;;;;5.47;59.35;97077.63;8482263;28;20440;-69
2021/12/25 16:31:13;;;;;;;2.30;2.10;;;;;;;4.90;61.07;97081.44;8482436;28;20520;-69
2021/12/25 16:35:18;;;;;;;5.07;2.27;;;;;;;5.40;59.73;97078.75;8482415;28;20418;-69
2021/12/25 16:39:22;;;;;;;3.10;2.80;;;;;;;4.83;60.90;97080.81;8482155;28;20225;-69
2021/12/25 16:43:25;;;;;;;3.03;2.20;;;;;;;5.16;59.47;97075.38;8482200;28;20266;-69
2021/12/25 16:47:28;;;;;;;2.10;1.90;;;;;;;4.30;60.75;97071.53;8481883;28;20229;-69
2021/12/25 16:51:33;;;;;;;2.30;2.10;;;;;;;4.67;59.41;97072.00;8481246;28;20236;-69
2021/12/25 16:55:38;;;;;;;2.20;2.00;;;;;;;4.94;59.80;97071.91;8482420;28;20244;-69
2021/12/25 16:59:41;;;;;;;1.90;1.80;;;;;;;5.13;58.05;97078.03;8481662;28;20536;-69
2021/12/25 17:03:44;;;;;;;2.50;2.30;;;;;;;5.62;58.05;97078.78;8481603;28;20233;-69
2021/12/25 17:07:49;;;;;;;2.00;1.80;;;;;;;5.94;58.15;97081.81;8481276;28;20225;-69
2021/12/25 17:11:52;;;;;;;10.60;9.70;;;;;;;5.90;58.17;97084.56;8481015;28;20229;-69
2021/12/25 17:15:55;;;;;;;12.77;11.67;;;;;;;5.51;59.34;97082.66;8480852;28;20225;-69
2021/12/25 17:19:59;;;;;;;5.00;4.60;;;;;;;5.57;59.17;97082.41;8481040;28;20229;-69
2021/12/25 17:24:08;;;;;;;4.57;4.17;;;;;;;5.37;59.43;97086.56;8481011;28;20235;-69
2021/12/25 17:28:11;;;;;;;3.90;3.50;;;;;;;4.98;59.42;97092.25;8446588;28;20229;-69
2021/12/25 17:32:14;;;;;;;3.13;2.80;;;;;;;4.87;59.12;97087.53;8447154;28;20420;-69
2021/12/25 17:36:18;;;;;;;4.20;3.80;;;;;;;5.05;57.97;97098.84;8447089;28;20230;-69
2021/12/25 17:40:23;;;;;;;2.73;2.27;;;;;;;4.77;59.01;97098.16;8446943;28;20429;-69
2021/12/25 17:44:28;;;;;;;2.80;2.57;;;;;;;5.02;57.56;97106.66;8447174;28;20234;-69
2021/12/25 17:48:32;;;;;;;3.50;3.07;;;;;;;5.14;56.24;97107.09;8447350;28;20234;-69
2021/12/25 17:52:35;;;;;;;3.73;3.20;;;;;;;4.83;57.57;97105.63;8447231;28;20319;-69
2021/12/25 17:56:40;;;;;;;2.67;2.20;;;;;;;4.66;57.23;97111.34;8447205;28;20445;-69
2021/12/25 18:00:45;;;;;;;2.73;2.50;;;;;;;4.65;57.39;97118.22;8446923;28;20230;-69
2021/12/25 18:04:48;;;;;;;3.13;2.83;;;;;;;3.84;59.31;97110.59;8447024;28;20261;-69
2021/12/25 18:08:54;;;;;;;2.73;2.50;;;;;;;4.09;58.00;97113.22;8448121;28;20226;-69
2021/12/25 18:12:59;;;;;;;2.77;2.40;;;;;;;3.74;58.78;97115.19;8453217;28;20552;-69
2021/12/25 18:17:02;;;;;;;4.27;3.70;;;;;;;3.67;59.58;97123.91;8453324;28;20230;-69
2021/12/25 18:21:05;;;;;;;5.10;4.40;;;;;;;3.54;60.51;97113.19;8453092;28;20242;-69
2021/12/25 18:25:09;;;;;;;5.13;2.93;;;;;;;3.23;60.12;97116.66;8452644;28;20222;-69
2021/12/25 18:29:14;;;;;;;2.90;2.47;;;;;;;3.09;61.07;97114.50;8452640;28;20524;-70
2021/12/25 18:33:18;;;;;;;8.07;6.77;;;;;;;2.84;62.21;97116.91;8452085;28;20416;-69
2021/12/25 18:37:21;;;;;;;3.77;3.47;;;;;;;2.87;61.54;97118.53;8452503;28;20226;-69
2021/12/25 18:41:26;;;;;;;10.70;8.80;;;;;;;3.01;61.43;97121.56;8427729;28;20231;-69
2021/12/25 18:45:31;;;;;;;9.03;7.83;;;;;;;3.59;60.29;97120.75;8418680;28;20231;-69
2021/12/25 18:49:34;;;;;;;3.67;3.00;;;;;;;3.73;60.17;97128.84;8418348;28;20239;-69
2021/12/25 18:53:37;;;;;;;3.73;3.43;;;;;;;3.46;60.15;97126.22;8418188;28;20245;-69
2021/12/25 18:57:41;;;;;;;3.97;3.20;;;;;;;3.83;59.59;97127.69;8417903;28;20231;-70
2021/12/25 19:01:45;;;;;;;2.80;2.50;;;;;;;3.72;59.77;97127.19;8418050;28;20234;-70
2021/12/25 19:05:49;;;;;;;2.47;2.23;;;;;;;3.65;60.03;97129.09;8417767;28;20235;-70
2021/12/25 19:09:52;;;;;;;5.60;5.10;;;;;;;3.70;58.90;97129.78;8417912;28;20231;-70
2021/12/25 19:13:55;;;;;;;3.27;2.97;;;;;;;4.21;58.32;97138.47;8417477;28;20246;-69
2021/12/25 19:18:00;;;;;;;4.80;4.30;;;;;;;4.21;57.65;97137.66;8417659;28;20234;-70
2021/12/25 19:22:03;;;;;;;5.63;5.00;;;;;;;4.23;57.78;97131.56;8417246;28;20238;-70
2021/12/25 19:26:06;;;;;;;4.60;4.10;;;;;;;4.06;58.40;97134.66;8417197;28;20245;-69
2021/12/25 19:30:12;;;;;;;151.77;88.50;;;;;;;4.23;57.92;97143.56;8416656;28;20233;-70
2021/12/25 19:34:16;;;;;;;8.40;5.93;;;;;;;3.89;58.74;97134.38;8416755;28;20233;-69
2021/12/25 19:38:23;;;;;;;5.57;5.07;;;;;;;3.94;58.91;97142.75;8416836;28;20231;-70
2021/12/25 19:42:26;;;;;;;84.20;53.13;;;;;;;4.28;58.39;97145.09;8449393;28;20229;-70
2021/12/25 19:46:31;;;;;;;10.20;9.17;;;;;;;4.22;58.16;97157.25;8449927;28;20226;-71
2021/12/25 19:50:40;;;;;;;7.17;6.47;;;;;;;4.14;58.36;97146.41;8449891;28;20548;-70
2021/12/25 19:54:43;;;;;;;6.43;5.83;;;;;;;3.83;58.58;97142.25;8449917;28;20234;-69
2021/12/25 19:58:47;;;;;;;7.00;5.93;;;;;;;4.02;58.63;97150.19;8449571;28;20244;-69
2021/12/25 20:02:50;;;;;;;9.60;8.60;;;;;;;4.22;58.13;97154.69;8449605;28;20230;-69
2021/12/25 20:06:55;;;;;;;7.90;7.03;;;;;;;4.03;58.53;97147.56;8449409;28;20237;-69
2021/12/25 20:10:58;;;;;;;6.93;6.30;;;;;;;4.32;57.87;97158.63;8449304;28;20229;-69
2021/12/25 20:15:01;;;;;;;4.63;4.23;;;;;;;4.45;56.79;97147.06;8448830;28;20431;-69